Time;durP1;ratioP1;P1;durP2;ratioP2;P2;SDS_P1;SDS_P2;PMS_P1;PMS_P2;Temp;Humidity;BMP_temperature;BMP_pressure;BME280_temperature;BME280_humidity;BME280_pressure;Samples;Min_cycle;Max_cycle;Signal;HPM_P1;HPM_P2
2022/02/14 00:00:51;;;;;;;7.60;2.53;;;;;;;5.75;41.40;99949.31;4993470;28;20127;-70
2022/02/14 00:03:16;;;;;;;5.95;2.78;;;;;;;5.66;41.69;99950.47;4989321;28;20484;-69
2022/02/14 00:05:42;;;;;;;7.50;2.55;;;;;;;5.77;41.36;99933.69;4994614;28;20034;-71
2022/02/14 00:08:07;;;;;;;6.57;2.28;;;;;;;5.50;42.14;99931.13;4990993;28;20058;-71
2022/02/14 00:10:34;;;;;;;5.95;2.35;;;;;;;5.47;41.98;99928.66;5007649;28;20073;-70
2022/02/14 00:12:59;;;;;;;3.22;1.80;;;;;;;5.55;42.02;99942.22;4982123;28;20514;-71
2022/02/14 00:15:30;;;;;;;9.10;1.92;;;;;;;5.22;42.45;99924.31;4993301;28;20491;-71
2022/02/14 00:17:56;;;;;;;9.85;1.90;;;;;;;5.59;42.01;99933.44;4989949;28;20045;-70
2022/02/14 00:20:30;;;;;;;4.40;2.15;;;;;;;5.12;42.83;99922.88;4990164;28;20073;-70
2022/02/14 00:22:55;;;;;;;5.75;2.13;;;;;;;5.85;41.63;99921.31;4989390;28;20046;-71
2022/02/14 00:25:23;;;;;;;12.55;1.83;;;;;;;5.87;41.42;99912.56;4990594;28;20034;-71
2022/02/14 00:27:50;;;;;;;7.05;2.17;;;;;;;5.51;42.07;99919.88;4990273;28;20041;-70
2022/02/14 00:30:16;;;;;;;5.13;2.28;;;;;;;5.59;41.95;99899.75;4989611;28;20045;-71
2022/02/14 00:32:44;;;;;;;6.63;1.95;;;;;;;5.91;41.22;99905.53;4990905;28;20527;-70
2022/02/14 00:35:13;;;;;;;7.00;2.67;;;;;;;5.75;42.09;99896.59;4989300;28;20159;-70
2022/02/14 00:37:38;;;;;;;9.55;2.00;;;;;;;5.77;41.87;99894.78;4990210;28;20066;-71
2022/02/14 00:40:07;;;;;;;8.48;2.90;;;;;;;5.37;42.39;99898.75;4990958;28;20037;-71
2022/02/14 00:42:35;;;;;;;6.97;2.55;;;;;;;5.73;42.02;99888.88;4989399;28;20088;-71
2022/02/14 00:45:03;;;;;;;7.15;2.67;;;;;;;5.40;42.58;99880.53;4990240;28;20103;-72
2022/02/14 00:47:28;;;;;;;3.50;1.90;;;;;;;5.64;42.04;99884.88;4991250;28;20285;-70
2022/02/14 00:49:54;;;;;;;6.63;2.53;;;;;;;6.03;41.22;99871.34;4988601;28;20150;-70
2022/02/14 00:52:21;;;;;;;3.63;2.33;;;;;;;5.83;41.84;99881.63;4990801;28;20038;-69
2022/02/14 00:54:46;;;;;;;5.88;2.42;;;;;;;5.86;41.56;99871.97;4987641;28;20084;-71
2022/02/14 00:57:11;;;;;;;5.32;2.30;;;;;;;5.58;42.39;99869.53;4987871;28;20050;-70
2022/02/14 00:59:41;;;;;;;5.00;2.30;;;;;;;6.08;41.23;99873.78;4991404;28;20038;-70
2022/02/14 01:02:09;;;;;;;2.80;1.88;;;;;;;5.79;41.78;99856.69;4989182;28;20470;-71
2022/02/14 01:04:36;;;;;;;7.35;2.08;;;;;;;5.59;42.35;99860.88;4992082;28;20069;-71
2022/02/14 01:07:05;;;;;;;7.80;1.73;;;;;;;5.92;41.99;99857.94;5004864;28;20301;-71
2022/02/14 01:09:34;;;;;;;3.75;1.95;;;;;;;6.15;41.47;99845.84;4990681;28;20042;-71
2022/02/14 01:12:05;;;;;;;5.70;1.65;;;;;;;6.04;41.78;99843.69;4996599;28;20041;-71
2022/02/14 01:14:30;;;;;;;4.13;1.80;;;;;;;5.41;42.94;99845.94;4992711;28;20092;-71
2022/02/14 01:16:57;;;;;;;2.95;1.60;;;;;;;5.99;41.98;99841.22;4990242;28;20045;-71
2022/02/14 01:19:24;;;;;;;4.25;1.75;;;;;;;6.02;41.77;99838.53;4991565;28;20034;-70
2022/02/14 01:21:59;;;;;;;3.97;1.48;;;;;;;6.08;41.91;99843.50;4994446;28;20192;-72
2022/02/14 01:24:25;;;;;;;6.28;1.40;;;;;;;6.09;41.54;99833.97;5003401;28;20034;-72
2022/02/14 01:26:50;;;;;;;6.35;1.75;;;;;;;6.06;41.70;99829.75;4990339;28;20119;-71
2022/02/14 01:29:17;;;;;;;3.50;1.90;;;;;;;5.48;43.11;99824.13;5005256;28;20498;-71
2022/02/14 01:31:42;;;;;;;10.15;2.03;;;;;;;6.03;41.89;99819.47;4991346;28;20034;-72
2022/02/14 01:34:13;;;;;;;3.78;2.03;;;;;;;5.81;42.61;99819.41;5008222;28;20030;-73
2022/02/14 01:36:38;;;;;;;4.18;2.00;;;;;;;6.27;41.39;99814.25;5013837;28;20093;-70
2022/02/14 01:39:04;;;;;;;3.90;1.38;;;;;;;6.27;41.48;99811.66;5010048;28;20418;-71
2022/02/14 01:41:32;;;;;;;3.00;1.40;;;;;;;6.05;42.14;99812.47;4992235;28;20029;-71
2022/02/14 01:43:57;;;;;;;5.05;1.67;;;;;;;6.29;41.68;99805.53;4994012;28;20080;-72
2022/02/14 01:46:23;;;;;;;10.43;1.80;;;;;;;6.25;42.00;99803.09;4992346;28;20084;-73
2022/02/14 01:48:51;;;;;;;5.70;1.77;;;;;;;6.36;41.35;99806.13;4989863;28;20049;-71
2022/02/14 01:51:19;;;;;;;6.70;2.00;;;;;;;6.69;40.79;99800.50;5007401;28;20026;-72
2022/02/14 01:53:45;;;;;;;6.60;2.20;;;;;;;6.00;42.12;99791.06;4988205;28;20511;-71
2022/02/14 01:56:12;;;;;;;7.00;1.95;;;;;;;6.42;41.63;99790.34;4991004;28;20100;-74
2022/02/14 01:58:40;;;;;;;5.35;1.55;;;;;;;6.30;41.69;99790.81;4989415;28;20030;-72
2022/02/14 02:01:05;;;;;;;6.55;1.58;;;;;;;5.82;42.62;99768.44;4991527;28;20025;-72
2022/02/14 02:03:31;;;;;;;6.55;1.80;;;;;;;6.44;41.35;99790.25;4987348;28;20041;-73
2022/02/14 02:05:57;;;;;;;4.35;1.80;;;;;;;6.21;42.10;99791.97;4991640;28;20060;-72
2022/02/14 02:08:24;;;;;;;5.40;1.40;;;;;;;6.39;41.61;99780.06;4991991;28;20128;-69
2022/02/14 02:12:22;;;;;;;3.97;1.92;;;;;;;6.25;42.40;99771.94;4987687;28;20530;-72
2022/02/14 02:13:50;;;;;;;5.70;1.67;;;;;;;6.16;42.49;99761.94;4986078;28;20052;-73
2022/02/14 02:16:18;;;;;;;2.75;1.55;;;;;;;6.49;41.70;99773.59;4996126;28;20029;-71
2022/02/14 02:18:44;;;;;;;6.13;1.48;;;;;;;6.13;42.87;99756.84;4987409;28;20107;-70
2022/02/14 02:21:12;;;;;;;6.43;1.60;;;;;;;6.51;41.81;99760.56;4987641;28;20033;-69
2022/02/14 02:23:41;;;;;;;5.03;1.60;;;;;;;5.90;42.89;99750.81;4987851;28;20038;-70
2022/02/14 02:26:11;;;;;;;7.25;1.60;;;;;;;6.10;42.64;99744.84;4987470;28;20503;-71
2022/02/14 02:28:39;;;;;;;9.27;1.48;;;;;;;6.22;42.35;99746.97;4986506;28;20046;-70
2022/02/14 02:31:05;;;;;;;5.60;1.98;;;;;;;6.12;43.00;99739.59;4989894;28;20545;-70
2022/02/14 02:33:35;;;;;;;6.00;2.00;;;;;;;6.44;42.12;99734.00;4984583;28;20092;-71
2022/02/14 02:36:02;;;;;;;5.20;1.40;;;;;;;6.18;42.64;99729.84;5002824;28;20042;-70
2022/02/14 02:38:31;;;;;;;3.55;1.40;;;;;;;6.23;42.78;99724.47;5001548;28;20038;-71
2022/02/14 02:40:59;;;;;;;4.22;0.98;;;;;;;6.20;42.50;99722.00;4985648;28;20039;-71
2022/02/14 02:43:29;;;;;;;4.60;1.48;;;;;;;6.30;42.95;99728.53;4987735;28;20089;-72
2022/02/14 02:45:56;;;;;;;4.07;2.30;;;;;;;6.35;42.65;99713.63;4990883;28;20030;-75
2022/02/14 02:48:22;;;;;;;8.25;1.33;;;;;;;6.26;42.94;99706.16;4984251;28;20495;-76
2022/02/14 02:51:02;;;;;;;4.35;1.08;;;;;;;6.47;42.07;99710.50;4991083;28;20100;-75
2022/02/14 02:53:34;;;;;;;4.75;1.33;;;;;;;5.99;43.67;99706.34;4981903;28;20050;-75
2022/02/14 02:56:03;;;;;;;4.30;1.30;;;;;;;6.34;42.88;99700.69;5011001;28;20040;-72
2022/02/14 02:58:28;;;;;;;6.60;2.13;;;;;;;6.20;43.11;99702.06;4984489;28;20183;-72
2022/02/14 03:00:56;;;;;;;2.45;1.05;;;;;;;6.17;43.04;99697.03;4994813;28;20061;-72
2022/02/14 03:03:22;;;;;;;4.25;1.77;;;;;;;5.72;43.96;99697.06;4990879;28;20085;-72
2022/02/14 03:05:47;;;;;;;6.53;1.55;;;;;;;6.17;43.41;99694.44;4990947;28;20037;-71
2022/02/14 03:08:15;;;;;;;2.83;1.90;;;;;;;5.92;43.95;99694.53;5008154;28;20044;-72
2022/02/14 03:10:40;;;;;;;5.55;1.52;;;;;;;6.21;43.45;99698.56;5006359;28;20026;-72
2022/02/14 03:13:13;;;;;;;7.38;1.95;;;;;;;6.37;42.87;99693.63;4991908;28;20056;-72
2022/02/14 03:15:41;;;;;;;7.80;1.20;;;;;;;5.90;43.87;99685.97;4997270;28;20109;-73
2022/02/14 03:18:07;;;;;;;6.95;1.75;;;;;;;5.91;44.17;99687.69;5008707;28;20442;-71
2022/02/14 03:20:33;;;;;;;4.82;1.52;;;;;;;6.19;43.45;99690.00;4993517;28;20230;-72
2022/02/14 03:22:58;;;;;;;4.63;1.77;;;;;;;6.06;44.01;99684.47;4992987;28;20120;-72
2022/02/14 03:25:28;;;;;;;2.85;1.35;;;;;;;5.97;44.11;99687.44;4995260;28;20030;-72
2022/02/14 03:27:55;;;;;;;7.13;1.58;;;;;;;6.01;44.27;99686.41;4992446;28;20050;-72
2022/02/14 03:30:21;;;;;;;3.10;1.55;;;;;;;5.72;44.67;99684.94;4994916;28;20030;-68
2022/02/14 03:32:49;;;;;;;5.45;1.30;;;;;;;5.79;44.81;99676.06;4988491;28;20053;-68
2022/02/14 03:35:14;;;;;;;5.38;1.15;;;;;;;6.45;43.08;99673.38;4990889;28;20034;-73
2022/02/14 03:37:40;;;;;;;5.80;1.58;;;;;;;5.91;44.19;99672.13;4988023;28;20133;-70
2022/02/14 03:40:08;;;;;;;5.97;1.13;;;;;;;5.89;44.18;99655.78;4992951;28;20281;-71
2022/02/14 03:42:34;;;;;;;2.42;1.00;;;;;;;6.41;43.19;99656.25;4990021;28;20097;-71
2022/02/14 03:45:02;;;;;;;8.15;1.45;;;;;;;6.41;43.40;99648.47;4994197;28;20030;-70
2022/02/14 03:47:29;;;;;;;8.98;1.45;;;;;;;6.09;44.04;99652.38;4981373;28;20054;-70
2022/02/14 03:49:55;;;;;;;3.28;1.27;;;;;;;6.12;44.48;99651.41;4993079;28;20037;-70
2022/02/14 03:52:23;;;;;;;6.97;2.25;;;;;;;6.20;43.92;99634.63;4991111;28;20046;-70
2022/02/14 03:54:53;;;;;;;9.75;1.77;;;;;;;5.90;44.92;99636.69;5007639;28;20838;-71
2022/02/14 03:57:18;;;;;;;2.70;1.38;;;;;;;6.07;44.51;99647.25;4991677;28;20034;-71
2022/02/14 03:59:44;;;;;;;4.43;2.35;;;;;;;6.53;43.55;99623.75;4990242;28;20053;-69
2022/02/14 04:02:09;;;;;;;3.58;1.58;;;;;;;6.33;44.10;99623.75;4992717;28;20054;-69
2022/02/14 04:04:38;;;;;;;2.92;1.08;;;;;;;6.02;45.00;99617.22;4991937;28;20270;-69
2022/02/14 04:07:05;;;;;;;13.75;1.50;;;;;;;6.11;44.50;99618.59;4990307;28;20048;-69
2022/02/14 04:09:38;;;;;;;3.88;1.38;;;;;;;6.48;43.54;99625.69;4989367;28;20018;-69
2022/02/14 04:12:06;;;;;;;2.67;1.52;;;;;;;6.39;43.64;99620.91;4989467;28;20499;-69
2022/02/14 04:14:32;;;;;;;9.35;1.85;;;;;;;6.42;43.98;99619.03;4989338;28;20034;-69
2022/02/14 04:16:57;;;;;;;3.28;1.40;;;;;;;6.40;43.93;99622.59;4989409;28;20060;-69
2022/02/14 04:19:25;;;;;;;3.60;1.10;;;;;;;6.40;43.84;99625.19;4991672;28;20573;-70
2022/02/14 04:21:53;;;;;;;6.88;1.35;;;;;;;6.36;44.24;99619.28;4996282;28;20258;-71
2022/02/14 04:24:20;;;;;;;4.65;1.95;;;;;;;6.40;43.94;99610.47;4990661;28;20121;-68
2022/02/14 04:26:48;;;;;;;5.88;1.15;;;;;;;6.43;43.66;99605.13;4964690;28;20045;-69
2022/02/14 04:29:14;;;;;;;6.15;1.70;;;;;;;6.46;43.78;99605.00;5020626;28;20048;-71
2022/02/14 04:31:41;;;;;;;4.43;1.23;;;;;;;6.65;43.22;99602.44;5013249;28;20033;-71
2022/02/14 04:34:07;;;;;;;5.32;1.40;;;;;;;6.51;43.77;99604.81;5015439;28;20045;-70
2022/02/14 04:36:42;;;;;;;6.10;1.75;;;;;;;6.58;43.47;99600.19;5010742;28;20125;-68
2022/02/14 04:39:08;;;;;;;2.95;1.55;;;;;;;6.13;44.38;99599.47;4992950;28;20049;-69
2022/02/14 04:41:34;;;;;;;3.17;1.75;;;;;;;6.64;43.39;99605.09;5003978;28;20048;-70
2022/02/14 04:44:00;;;;;;;7.75;1.63;;;;;;;6.27;43.97;99597.13;5003507;28;20034;-72
2022/02/14 04:46:27;;;;;;;6.60;1.25;;;;;;;6.17;44.46;99587.19;4992253;28;20526;-71
2022/02/14 04:48:53;;;;;;;6.57;0.85;;;;;;;5.97;45.00;99586.28;4991770;28;20046;-71
2022/02/14 04:51:18;;;;;;;6.93;1.33;;;;;;;6.14;44.20;99575.19;4996062;28;20034;-69
2022/02/14 04:53:44;;;;;;;5.43;1.50;;;;;;;6.29;44.05;99586.72;4993374;28;20593;-70
2022/02/14 04:56:09;;;;;;;5.38;1.10;;;;;;;6.18;44.48;99586.28;4996144;28;20029;-71
2022/02/14 04:58:35;;;;;;;8.30;1.38;;;;;;;6.20;44.40;99579.28;4992454;28;20077;-69
2022/02/14 05:01:00;;;;;;;9.20;1.85;;;;;;;5.70;45.63;99579.63;4994371;28;20066;-71
2022/02/14 05:03:26;;;;;;;12.55;1.88;;;;;;;5.86;45.50;99572.94;4989297;28;20037;-70
2022/02/14 05:05:51;;;;;;;4.03;1.35;;;;;;;5.94;45.15;99580.38;5004271;28;20300;-71
2022/02/14 05:08:17;;;;;;;6.25;1.75;;;;;;;6.01;44.93;99572.25;4989159;28;20050;-73
2022/02/14 05:10:42;;;;;;;4.13;0.85;;;;;;;6.28;44.09;99585.00;4988290;28;20053;-71
2022/02/14 05:13:07;;;;;;;4.07;1.17;;;;;;;5.93;45.12;99573.50;4990219;28;20050;-72
2022/02/14 05:15:33;;;;;;;5.63;1.10;;;;;;;6.05;44.53;99571.22;4992131;28;20469;-73
2022/02/14 05:17:58;;;;;;;4.95;0.77;;;;;;;6.26;44.26;99576.41;4991175;28;20124;-73
2022/02/14 05:20:24;;;;;;;5.30;1.55;;;;;;;6.04;44.93;99577.34;4994715;28;20053;-74
2022/02/14 05:22:49;;;;;;;10.80;1.48;;;;;;;6.15;44.29;99583.81;4992502;28;20046;-74
2022/02/14 05:25:15;;;;;;;4.13;1.30;;;;;;;5.99;44.82;99568.88;4991962;28;20092;-72
2022/02/14 05:27:40;;;;;;;5.35;1.20;;;;;;;6.27;44.05;99567.75;4991056;28;20033;-72
2022/02/14 05:30:07;;;;;;;2.20;1.23;;;;;;;6.28;44.07;99569.44;4992871;28;20104;-72
2022/02/14 05:32:32;;;;;;;2.45;1.20;;;;;;;5.99;44.99;99568.88;4996398;28;20049;-72
2022/02/14 05:34:59;;;;;;;1.50;1.00;;;;;;;6.12;44.63;99564.03;4992751;28;20160;-73
2022/02/14 05:37:24;;;;;;;7.35;1.55;;;;;;;6.04;44.83;99566.97;4989238;28;20052;-74
2022/02/14 05:39:50;;;;;;;7.88;1.05;;;;;;;6.32;44.16;99565.81;4991160;28;21602;-71
2022/02/14 05:42:17;;;;;;;3.72;1.02;;;;;;;6.29;44.11;99566.78;4986626;28;20057;-71
2022/02/14 05:44:43;;;;;;;6.20;1.40;;;;;;;5.70;45.33;99556.28;4988247;28;20045;-71
2022/02/14 05:47:08;;;;;;;4.50;0.88;;;;;;;5.73;45.85;99566.56;4994593;28;20049;-72
2022/02/14 05:49:35;;;;;;;10.57;1.13;;;;;;;6.07;44.58;99561.63;4988959;28;20057;-72
2022/02/14 05:52:00;;;;;;;4.63;1.02;;;;;;;6.06;44.87;99580.72;4987169;28;20026;-72
2022/02/14 05:54:26;;;;;;;3.10;0.90;;;;;;;5.90;45.11;99571.88;4992350;28;20030;-72
2022/02/14 05:56:51;;;;;;;2.58;0.88;;;;;;;6.13;44.41;99570.94;4996467;28;20030;-73
2022/02/14 05:59:17;;;;;;;5.82;1.00;;;;;;;6.34;43.76;99569.19;4992323;28;20113;-74
2022/02/14 06:01:43;;;;;;;4.78;0.98;;;;;;;6.27;44.18;99567.75;4988442;28;20050;-73
2022/02/14 06:04:08;;;;;;;4.30;1.20;;;;;;;6.21;44.42;99573.19;4992941;28;20050;-73
2022/02/14 06:06:34;;;;;;;3.78;0.85;;;;;;;5.88;45.35;99574.53;4982117;28;20038;-71
2022/02/14 06:08:59;;;;;;;6.13;0.82;;;;;;;6.21;44.51;99568.00;4988076;28;20128;-70
2022/02/14 06:11:25;;;;;;;4.35;1.48;;;;;;;6.08;44.84;99581.50;4989924;28;20475;-69
2022/02/14 06:13:50;;;;;;;3.78;0.95;;;;;;;6.39;44.05;99575.00;4986993;28;20534;-69
2022/02/14 06:16:16;;;;;;;3.97;0.93;;;;;;;5.94;45.17;99570.84;4986811;28;20094;-68
2022/02/14 06:18:41;;;;;;;3.63;1.00;;;;;;;6.34;44.33;99571.78;4985548;28;20880;-68
2022/02/14 06:21:06;;;;;;;5.00;0.77;;;;;;;6.04;44.71;99579.09;4990159;28;20089;-68
2022/02/14 06:23:32;;;;;;;4.22;1.75;;;;;;;5.95;44.71;99582.03;4986158;28;20038;-69
2022/02/14 06:26:00;;;;;;;2.90;1.10;;;;;;;6.06;44.89;99570.34;5004385;28;20496;-69
2022/02/14 06:28:26;;;;;;;7.90;1.65;;;;;;;5.96;45.14;99573.38;4986142;28;20125;-68
2022/02/14 06:30:51;;;;;;;5.57;1.88;;;;;;;5.90;45.68;99574.47;4988130;28;20117;-70
2022/02/14 06:33:17;;;;;;;6.15;1.67;;;;;;;6.10;44.99;99578.81;4986575;28;20089;-69
2022/02/14 06:35:42;;;;;;;6.50;1.00;;;;;;;5.99;44.71;99560.28;4989368;28;20049;-69
2022/02/14 06:38:08;;;;;;;3.25;1.33;;;;;;;6.05;45.11;99579.00;4989857;28;20034;-69
2022/02/14 06:40:33;;;;;;;6.18;1.20;;;;;;;6.19;44.89;99577.59;4985788;28;20029;-69
2022/02/14 06:42:59;;;;;;;7.68;1.23;;;;;;;6.53;44.52;99565.78;5001978;28;20100;-68
2022/02/14 06:45:24;;;;;;;3.42;1.35;;;;;;;5.98;45.41;99562.03;4985274;28;20125;-70
2022/02/14 06:47:50;;;;;;;7.13;1.23;;;;;;;6.42;44.12;99574.06;4989984;28;21570;-69
2022/02/14 06:50:17;;;;;;;5.18;1.00;;;;;;;6.49;44.16;99563.34;5013764;23;20544;-68
2022/02/14 06:52:44;;;;;;;3.83;1.63;;;;;;;6.36;44.21;99575.16;5012058;28;20486;-68
2022/02/14 06:55:10;;;;;;;3.40;1.00;;;;;;;6.64;43.86;99568.75;5012780;28;20546;-73
2022/02/14 06:57:36;;;;;;;9.10;0.70;;;;;;;6.99;43.25;99568.91;5017130;28;20042;-70
2022/02/14 07:00:08;;;;;;;5.15;1.58;;;;;;;6.67;44.03;99579.00;4986315;28;20060;-72
2022/02/14 07:02:34;;;;;;;4.03;0.77;;;;;;;6.75;43.70;99565.69;5005161;28;20069;-69
2022/02/14 07:05:00;;;;;;;3.63;0.93;;;;;;;6.42;44.28;99569.72;4994162;28;20055;-69
2022/02/14 07:07:26;;;;;;;7.63;1.30;;;;;;;6.82;43.88;99580.94;4988594;28;20410;-72
2022/02/14 07:09:52;;;;;;;4.55;1.02;;;;;;;7.05;43.20;99577.28;5007227;28;20072;-72
2022/02/14 07:12:17;;;;;;;6.25;1.08;;;;;;;6.37;44.44;99569.03;4997302;28;20664;-70
2022/02/14 07:14:44;;;;;;;3.88;0.77;;;;;;;6.28;44.78;99582.41;5007547;28;20672;-69
2022/02/14 07:17:11;;;;;;;4.28;0.95;;;;;;;6.50;44.35;99580.59;5005737;28;20125;-73
2022/02/14 07:19:39;;;;;;;5.72;0.98;;;;;;;6.93;43.59;99566.59;5010324;28;20049;-72
2022/02/14 07:22:06;;;;;;;2.78;0.80;;;;;;;6.42;44.56;99569.72;4987688;28;20360;-71
2022/02/14 07:24:32;;;;;;;2.42;0.73;;;;;;;6.76;43.57;99570.81;5006527;28;20124;-73
2022/02/14 07:26:58;;;;;;;2.65;0.80;;;;;;;7.00;42.83;99568.00;4992844;28;20701;-71
2022/02/14 07:29:23;;;;;;;6.80;0.95;;;;;;;6.65;43.90;99567.84;4998887;28;20040;-73
2022/02/14 07:31:49;;;;;;;2.05;1.33;;;;;;;7.03;43.25;99567.88;5005260;28;20034;-72
2022/02/14 07:34:15;;;;;;;4.30;1.25;;;;;;;6.76;43.95;99568.22;5009504;28;20500;-73
2022/02/14 07:36:41;;;;;;;4.35;0.88;;;;;;;6.88;43.39;99572.00;4989115;28;20022;-72
2022/02/14 07:39:07;;;;;;;3.42;0.77;;;;;;;6.82;43.72;99560.16;4989849;28;20479;-74
2022/02/14 07:41:34;;;;;;;4.43;0.98;;;;;;;6.36;44.47;99572.56;4993489;28;20034;-74
2022/02/14 07:44:00;;;;;;;5.20;0.90;;;;;;;7.23;42.95;99564.34;5008389;28;20046;-73
2022/02/14 07:46:26;;;;;;;4.38;0.73;;;;;;;6.64;44.13;99571.34;4994005;28;20394;-73
2022/02/14 07:48:52;;;;;;;4.03;0.80;;;;;;;7.07;43.13;99565.06;5008369;28;20135;-75
2022/02/14 07:51:18;;;;;;;3.30;1.50;;;;;;;7.04;43.38;99570.41;4983507;28;20453;-72
2022/02/14 07:53:44;;;;;;;6.88;0.73;;;;;;;7.18;43.09;99563.72;5008230;28;20085;-72
2022/02/14 07:56:12;;;;;;;6.22;1.08;;;;;;;6.95;43.22;99570.81;5010192;28;20362;-72
2022/02/14 07:58:39;;;;;;;4.30;1.23;;;;;;;6.93;43.21;99556.22;5009390;28;20070;-71
2022/02/14 08:01:05;;;;;;;7.50;1.17;;;;;;;7.28;43.20;99557.16;5010561;28;20029;-71
2022/02/14 08:03:31;;;;;;;1.55;0.68;;;;;;;7.14;43.28;99550.03;4996008;28;20060;-74
2022/02/14 08:05:57;;;;;;;8.95;0.90;;;;;;;7.66;42.30;99552.75;5010639;28;20026;-72
2022/02/14 08:08:23;;;;;;;3.50;1.42;;;;;;;7.35;42.81;99552.53;5008511;28;20041;-72
2022/02/14 08:10:48;;;;;;;2.50;0.73;;;;;;;7.41;42.79;99557.44;5009416;28;20588;-70
2022/02/14 08:13:14;;;;;;;7.32;1.60;;;;;;;7.71;42.00;99549.94;5000173;28;20501;-70
2022/02/14 08:15:39;;;;;;;1.80;0.50;;;;;;;7.91;41.61;99542.00;5007358;28;20885;-71
2022/02/14 08:18:07;;;;;;;4.88;0.70;;;;;;;8.23;40.74;99547.31;5007391;28;20068;-71
2022/02/14 08:20:34;;;;;;;5.63;1.05;;;;;;;8.10;40.88;99544.50;5007206;28;20033;-72
2022/02/14 08:23:00;;;;;;;2.75;0.82;;;;;;;7.78;41.96;99545.25;5010525;28;20056;-71
2022/02/14 08:25:26;;;;;;;3.58;0.80;;;;;;;8.28;40.84;99534.91;5009388;28;20033;-70
2022/02/14 08:27:52;;;;;;;3.25;0.75;;;;;;;8.97;39.12;99541.69;4996626;28;20358;-71
2022/02/14 08:30:18;;;;;;;2.00;0.82;;;;;;;8.12;41.22;99539.22;5007624;28;20033;-71
2022/02/14 08:32:44;;;;;;;2.22;0.47;;;;;;;8.39;40.65;99547.38;4989147;28;20540;-72
2022/02/14 08:35:10;;;;;;;3.50;0.93;;;;;;;8.19;41.07;99540.59;5010510;28;20044;-71
2022/02/14 08:37:36;;;;;;;4.50;1.02;;;;;;;8.26;40.64;99535.91;4989428;28;20140;-71
2022/02/14 08:40:02;;;;;;;1.60;0.57;;;;;;;8.25;41.10;99536.81;5011305;28;20063;-71
2022/02/14 08:42:27;;;;;;;2.95;0.75;;;;;;;8.31;41.27;99533.91;5006694;28;20051;-72
2022/02/14 08:44:53;;;;;;;1.75;0.60;;;;;;;7.83;42.25;99543.31;4990292;28;20124;-71
2022/02/14 08:47:18;;;;;;;5.10;1.50;;;;;;;7.46;42.68;99526.84;5006913;28;20240;-72
2022/02/14 08:49:46;;;;;;;5.47;0.55;;;;;;;8.02;42.14;99538.84;5009494;28;20037;-72
2022/02/14 08:52:12;;;;;;;3.47;0.95;;;;;;;8.13;42.41;99531.31;5007571;28;20045;-71
2022/02/14 08:54:38;;;;;;;2.95;0.80;;;;;;;8.06;42.70;99535.16;5004233;28;20041;-71
2022/02/14 08:57:04;;;;;;;3.05;0.90;;;;;;;8.26;42.21;99530.72;5006650;28;20287;-71
2022/02/14 08:59:29;;;;;;;4.00;0.73;;;;;;;7.64;43.37;99523.38;5007536;28;20494;-70
2022/02/14 09:01:56;;;;;;;3.17;0.70;;;;;;;8.31;42.24;99526.94;5004410;28;20056;-71
2022/02/14 09:04:23;;;;;;;8.82;1.20;;;;;;;8.02;42.37;99528.44;4984076;28;20102;-73
2022/02/14 09:06:48;;;;;;;2.42;1.27;;;;;;;8.30;42.13;99530.47;4993900;28;20094;-72
2022/02/14 09:09:14;;;;;;;1.98;0.85;;;;;;;8.09;42.85;99524.63;4992170;28;20502;-71
2022/02/14 09:11:41;;;;;;;3.05;0.55;;;;;;;7.56;43.63;99529.88;4997726;28;20036;-72
2022/02/14 09:14:08;;;;;;;2.72;0.68;;;;;;;8.50;41.86;99532.03;4993906;28;20041;-72
2022/02/14 09:16:34;;;;;;;1.63;0.52;;;;;;;8.84;41.40;99525.03;4995153;28;20017;-74
2022/02/14 09:19:00;;;;;;;6.28;0.90;;;;;;;8.60;41.82;99534.97;4994855;28;20287;-71
2022/02/14 09:21:28;;;;;;;3.30;0.75;;;;;;;8.96;41.43;99537.41;4979456;28;20617;-73
2022/02/14 09:23:54;;;;;;;2.33;0.52;;;;;;;8.43;42.69;99538.50;4978055;28;20061;-71
2022/02/14 09:26:20;;;;;;;1.83;0.82;;;;;;;8.66;42.53;99541.63;4994666;28;20026;-70
2022/02/14 09:28:45;;;;;;;1.52;0.60;;;;;;;8.38;42.91;99545.66;4993357;28;20056;-72
2022/02/14 09:31:11;;;;;;;2.25;0.50;;;;;;;8.08;43.83;99543.72;4993550;28;20022;-71
2022/02/14 09:33:36;;;;;;;2.83;0.82;;;;;;;8.49;43.12;99545.94;4994635;28;20087;-71
2022/02/14 09:36:02;;;;;;;5.32;0.70;;;;;;;7.81;44.36;99550.34;4977491;28;20026;-72
2022/02/14 09:38:27;;;;;;;6.05;0.70;;;;;;;7.66;45.20;99550.16;4981906;28;20045;-72
2022/02/14 09:40:55;;;;;;;2.05;0.82;;;;;;;7.08;46.69;99555.50;4978812;28;20079;-70
2022/02/14 09:43:21;;;;;;;1.45;0.65;;;;;;;7.64;46.08;99548.56;4982403;28;20033;-71
2022/02/14 09:45:47;;;;;;;3.33;0.63;;;;;;;7.87;45.14;99566.47;4991533;28;20111;-72
2022/02/14 09:48:13;;;;;;;2.55;1.02;;;;;;;7.08;46.95;99563.28;4992484;28;21931;-72
2022/02/14 09:50:40;;;;;;;3.25;0.43;;;;;;;7.67;45.43;99551.84;4973654;28;20053;-71
2022/02/14 09:53:08;;;;;;;4.20;0.93;;;;;;;7.93;45.13;99558.34;4976405;28;20049;-71
2022/02/14 09:55:37;;;;;;;1.80;0.70;;;;;;;7.74;45.33;99563.63;4979795;28;20022;-71
2022/02/14 09:58:03;;;;;;;2.17;0.82;;;;;;;8.18;44.88;99569.28;4981709;28;20038;-71
2022/02/14 10:00:29;;;;;;;2.20;0.80;;;;;;;8.26;45.24;99564.53;4994350;28;20021;-71
2022/02/14 10:03:23;;;;;;;3.97;0.70;;;;;;;8.04;45.90;99567.38;4993638;28;20046;-71
2022/02/14 10:05:50;;;;;;;4.78;0.80;;;;;;;8.23;45.00;99582.94;4991132;28;20064;-71
2022/02/14 10:08:23;;;;;;;1.00;0.80;;;;;;;8.38;44.91;99576.91;4991767;28;21744;-70
2022/02/14 10:10:50;;;;;;;5.65;0.45;;;;;;;7.87;46.23;99571.69;4992921;28;20509;-71
2022/02/14 10:13:33;;;;;;;3.75;0.70;;;;;;;7.72;46.76;99577.63;4992693;28;20029;-71
2022/02/14 10:15:59;;;;;;;2.38;0.43;;;;;;;7.63;46.94;99589.31;4992701;28;20487;-71
2022/02/14 10:18:33;;;;;;;2.45;0.85;;;;;;;7.69;46.97;99572.56;4961634;28;20518;-71
2022/02/14 10:21:19;;;;;;;2.00;0.85;;;;;;;7.89;46.34;99600.19;4979787;28;21612;-71
2022/02/14 10:24:00;;;;;;;1.83;0.82;;;;;;;8.08;45.50;99601.00;4974804;28;20081;-73
2022/02/14 10:26:39;;;;;;;2.00;0.70;;;;;;;8.13;45.93;99614.59;4992852;28;20032;-71
2022/02/14 10:29:27;;;;;;;1.55;0.60;;;;;;;8.15;45.84;99623.19;4993904;28;20061;-71
2022/02/14 10:31:59;;;;;;;1.67;0.70;;;;;;;7.79;47.11;99632.81;4991562;28;20045;-71
2022/02/14 10:34:33;;;;;;;3.00;0.60;;;;;;;7.74;47.33;99635.63;4992889;28;20026;-73
2022/02/14 10:36:58;;;;;;;3.78;0.80;;;;;;;7.59;48.23;99628.56;4981710;28;20877;-70
2022/02/14 10:39:25;;;;;;;1.77;0.80;;;;;;;7.07;49.90;99657.75;4991884;28;20049;-70
2022/02/14 10:42:01;;;;;;;1.83;0.57;;;;;;;7.04;49.70;99663.94;4973733;28;20050;-70
2022/02/14 10:47:19;;;;;;;3.90;0.63;;;;;;;7.52;49.09;99679.97;4993498;28;20088;-71
2022/02/14 10:49:56;;;;;;;2.30;0.77;;;;;;;7.38;49.65;99671.94;4992197;28;20424;-72
2022/02/14 10:52:21;;;;;;;1.50;0.68;;;;;;;7.35;49.55;99680.72;4992169;28;20042;-72
2022/02/14 10:54:47;;;;;;;2.10;0.80;;;;;;;7.08;50.99;99698.41;4972072;28;20028;-73
2022/02/14 10:57:26;;;;;;;3.95;1.88;;;;;;;6.56;53.59;99703.25;4990472;28;20038;-71
2022/02/14 10:59:59;;;;;;;1.98;0.70;;;;;;;5.96;55.14;99714.28;4993617;28;20335;-71
2022/02/14 11:02:25;;;;;;;4.90;0.68;;;;;;;5.40;57.02;99723.31;4975551;28;20128;-71
2022/02/14 11:04:50;;;;;;;4.90;1.00;;;;;;;5.69;56.60;99725.72;4992433;28;20039;-72
2022/02/14 11:07:19;;;;;;;0.68;0.22;;;;;;;5.90;55.95;99740.44;5004060;28;20038;-71
2022/02/14 11:09:48;;;;;;;4.28;0.30;;;;;;;5.63;56.47;99729.38;5003521;28;20038;-72
2022/02/14 11:12:18;;;;;;;3.63;1.30;;;;;;;5.22;57.92;99735.19;5003228;28;20300;-71
2022/02/14 11:14:50;;;;;;;1.20;0.40;;;;;;;5.89;56.62;99733.56;5004413;28;20397;-71
2022/02/14 11:17:17;;;;;;;2.58;0.38;;;;;;;5.54;57.43;99716.75;5007834;28;20072;-71
2022/02/14 11:19:45;;;;;;;1.90;1.13;;;;;;;6.29;55.17;99738.06;5008321;28;20040;-71
2022/02/14 11:22:11;;;;;;;3.92;0.98;;;;;;;6.34;55.05;99737.03;5009220;28;20092;-71
2022/02/14 11:24:43;;;;;;;1.35;0.68;;;;;;;6.67;54.70;99732.22;5009116;28;20034;-73
2022/02/14 11:27:16;;;;;;;1.67;0.52;;;;;;;6.63;54.92;99730.66;5007452;28;20568;-72
2022/02/14 11:29:51;;;;;;;6.07;1.50;;;;;;;7.05;53.97;99738.38;4995637;28;20044;-73
2022/02/14 11:32:24;;;;;;;0.93;0.38;;;;;;;6.93;53.83;99740.63;4997337;28;20099;-72
2022/02/14 11:35:00;;;;;;;4.68;1.15;;;;;;;7.28;53.27;99745.13;5007967;28;20088;-73
2022/02/14 11:37:53;;;;;;;3.67;1.38;;;;;;;7.25;52.84;99741.84;5009682;28;20129;-73
2022/02/14 11:40:48;;;;;;;0.90;0.40;;;;;;;7.46;52.74;99750.44;5008472;28;20030;-74
2022/02/14 11:43:19;;;;;;;1.73;0.52;;;;;;;8.28;50.19;99744.94;4997683;28;20064;-73
2022/02/14 11:46:18;;;;;;;1.73;0.88;;;;;;;8.20;50.54;99749.66;5011968;28;20048;-71